sensor_id;sensor_type;location;lat;lon;timestamp;temperature;humidity
13405;DHT22;6773;51.192;7.024;2023-02-28T00:00:18;0.40;99.00
13405;DHT22;6773;51.192;7.024;2023-02-28T00:02:45;0.40;99.10
13405;DHT22;6773;51.192;7.024;2023-02-28T00:05:13;0.30;99.30
13405;DHT22;6773;51.192;7.024;2023-02-28T00:07:39;0.20;99.50
13405;DHT22;6773;51.192;7.024;2023-02-28T00:10:07;0.10;99.90
13405;DHT22;6773;51.192;7.024;2023-02-28T00:12:36;0.20;99.90
13405;DHT22;6773;51.192;7.024;2023-02-28T00:15:05;0.20;99.90
13405;DHT22;6773;51.192;7.024;2023-02-28T00:17:31;0.20;99.90
13405;DHT22;6773;51.192;7.024;2023-02-28T00:19:57;0.20;99.90
13405;DHT22;6773;51.192;7.024;2023-02-28T00:22:27;0.10;99.90
13405;DHT22;6773;51.192;7.024;2023-02-28T00:24:52;0.10;99.90
13405;DHT22;6773;51.192;7.024;2023-02-28T00:27:18;0.10;99.90
13405;DHT22;6773;51.192;7.024;2023-02-28T00:29:43;0.20;99.90
13405;DHT22;6773;51.192;7.024;2023-02-28T00:37:05;0.20;99.90
13405;DHT22;6773;51.192;7.024;2023-02-28T00:39:31;0.20;99.90
13405;DHT22;6773;51.192;7.024;2023-02-28T00:41:58;0.20;99.90
13405;DHT22;6773;51.192;7.024;2023-02-28T00:44:23;0.20;99.90
13405;DHT22;6773;51.192;7.024;2023-02-28T00:49:15;0.30;99.90
13405;DHT22;6773;51.192;7.024;2023-02-28T00:51:41;0.20;99.90
13405;DHT22;6773;51.192;7.024;2023-02-28T00:54:07;0.20;99.90
13405;DHT22;6773;51.192;7.024;2023-02-28T00:56:32;0.20;99.90
13405;DHT22;6773;51.192;7.024;2023-02-28T00:58:58;0.20;99.90
13405;DHT22;6773;51.192;7.024;2023-02-28T01:01:24;0.20;99.90
13405;DHT22;6773;51.192;7.024;2023-02-28T01:03:49;0.20;99.90
13405;DHT22;6773;51.192;7.024;2023-02-28T01:06:15;0.10;99.90
13405;DHT22;6773;51.192;7.024;2023-02-28T01:08:40;0.10;99.90
13405;DHT22;6773;51.192;7.024;2023-02-28T01:11:13;0.10;99.90
13405;DHT22;6773;51.192;7.024;2023-02-28T01:13:40;0.00;99.90
13405;DHT22;6773;51.192;7.024;2023-02-28T01:16:06;0.10;99.90
13405;DHT22;6773;51.192;7.024;2023-02-28T01:18:32;0.00;99.90
13405;DHT22;6773;51.192;7.024;2023-02-28T01:23:24;-0.10;99.90
13405;DHT22;6773;51.192;7.024;2023-02-28T01:25:50;0.00;99.90
13405;DHT22;6773;51.192;7.024;2023-02-28T01:30:42;-0.20;99.90
13405;DHT22;6773;51.192;7.024;2023-02-28T01:33:08;-0.20;99.90
13405;DHT22;6773;51.192;7.024;2023-02-28T01:35:34;-0.10;99.90
13405;DHT22;6773;51.192;7.024;2023-02-28T01:38:02;-0.20;99.90
13405;DHT22;6773;51.192;7.024;2023-02-28T01:40:28;-0.20;99.90
13405;DHT22;6773;51.192;7.024;2023-02-28T01:45:26;-0.20;99.90
13405;DHT22;6773;51.192;7.024;2023-02-28T01:47:55;-0.20;99.90
13405;DHT22;6773;51.192;7.024;2023-02-28T01:50:27;-0.20;99.90
13405;DHT22;6773;51.192;7.024;2023-02-28T01:52:55;-0.20;99.90
13405;DHT22;6773;51.192;7.024;2023-02-28T01:55:23;-0.20;99.90
13405;DHT22;6773;51.192;7.024;2023-02-28T01:57:57;-0.20;99.90
13405;DHT22;6773;51.192;7.024;2023-02-28T02:00:25;-0.20;99.90
13405;DHT22;6773;51.192;7.024;2023-02-28T02:02:58;-0.20;99.90
13405;DHT22;6773;51.192;7.024;2023-02-28T02:05:26;-0.20;99.90
13405;DHT22;6773;51.192;7.024;2023-02-28T02:08:01;-0.30;99.90
13405;DHT22;6773;51.192;7.024;2023-02-28T02:18:24;-0.30;99.90
13405;DHT22;6773;51.192;7.024;2023-02-28T02:21:22;-0.30;99.90
13405;DHT22;6773;51.192;7.024;2023-02-28T02:30:02;-0.30;99.90
13405;DHT22;6773;51.192;7.024;2023-02-28T02:33:02;-0.30;99.90
13405;DHT22;6773;51.192;7.024;2023-02-28T02:35:43;-0.40;99.90
13405;DHT22;6773;51.192;7.024;2023-02-28T02:46:33;-0.50;99.90
13405;DHT22;6773;51.192;7.024;2023-02-28T02:49:03;-0.60;99.90
13405;DHT22;6773;51.192;7.024;2023-02-28T02:51:32;-0.60;99.90
13405;DHT22;6773;51.192;7.024;2023-02-28T02:54:12;-0.60;99.90
13405;DHT22;6773;51.192;7.024;2023-02-28T02:56:45;-0.70;99.90
13405;DHT22;6773;51.192;7.024;2023-02-28T02:59:13;-0.70;99.90
13405;DHT22;6773;51.192;7.024;2023-02-28T03:01:41;-0.80;99.90
13405;DHT22;6773;51.192;7.024;2023-02-28T03:04:11;-0.80;99.90
13405;DHT22;6773;51.192;7.024;2023-02-28T03:09:05;-0.80;99.90
13405;DHT22;6773;51.192;7.024;2023-02-28T03:11:31;-0.90;99.90
13405;DHT22;6773;51.192;7.024;2023-02-28T03:19:44;-0.90;99.90
13405;DHT22;6773;51.192;7.024;2023-02-28T03:27:49;-0.90;99.90
13405;DHT22;6773;51.192;7.024;2023-02-28T03:30:24;-1.10;99.90
13405;DHT22;6773;51.192;7.024;2023-02-28T03:32:58;-1.00;99.90
13405;DHT22;6773;51.192;7.024;2023-02-28T03:35:31;-1.10;99.90
13405;DHT22;6773;51.192;7.024;2023-02-28T03:40:58;-1.10;99.90
13405;DHT22;6773;51.192;7.024;2023-02-28T03:43:29;-1.10;99.90
13405;DHT22;6773;51.192;7.024;2023-02-28T03:45:59;-1.10;99.90
13405;DHT22;6773;51.192;7.024;2023-02-28T03:48:55;-1.20;99.90
13405;DHT22;6773;51.192;7.024;2023-02-28T03:51:23;-1.10;99.90
13405;DHT22;6773;51.192;7.024;2023-02-28T03:53:56;-1.20;99.90
13405;DHT22;6773;51.192;7.024;2023-02-28T03:56:48;-1.00;99.90
13405;DHT22;6773;51.192;7.024;2023-02-28T03:59:20;-1.10;99.90
13405;DHT22;6773;51.192;7.024;2023-02-28T04:01:48;-1.10;99.90
13405;DHT22;6773;51.192;7.024;2023-02-28T04:04:15;-1.10;99.90
13405;DHT22;6773;51.192;7.024;2023-02-28T04:06:41;-1.10;99.90
13405;DHT22;6773;51.192;7.024;2023-02-28T04:09:10;-1.20;99.90
13405;DHT22;6773;51.192;7.024;2023-02-28T04:11:45;-1.10;99.90
13405;DHT22;6773;51.192;7.024;2023-02-28T04:14:12;-1.10;99.90
13405;DHT22;6773;51.192;7.024;2023-02-28T04:16:40;-1.20;99.90
13405;DHT22;6773;51.192;7.024;2023-02-28T04:19:07;-1.10;99.90
13405;DHT22;6773;51.192;7.024;2023-02-28T04:21:59;-1.20;99.90
13405;DHT22;6773;51.192;7.024;2023-02-28T04:24:27;-1.10;99.90
13405;DHT22;6773;51.192;7.024;2023-02-28T04:26:54;-1.20;99.90
13405;DHT22;6773;51.192;7.024;2023-02-28T04:29:23;-1.10;99.90
13405;DHT22;6773;51.192;7.024;2023-02-28T04:34:16;-1.10;99.90
13405;DHT22;6773;51.192;7.024;2023-02-28T04:36:44;-1.10;99.90
13405;DHT22;6773;51.192;7.024;2023-02-28T04:39:11;-1.20;99.90
13405;DHT22;6773;51.192;7.024;2023-02-28T04:51:22;-1.10;99.90
13405;DHT22;6773;51.192;7.024;2023-02-28T04:53:48;-1.10;99.90
13405;DHT22;6773;51.192;7.024;2023-02-28T04:56:15;-1.10;99.90
13405;DHT22;6773;51.192;7.024;2023-02-28T04:58:41;-1.10;99.90
13405;DHT22;6773;51.192;7.024;2023-02-28T05:01:24;-1.20;99.90
13405;DHT22;6773;51.192;7.024;2023-02-28T05:03:52;-1.20;99.90
13405;DHT22;6773;51.192;7.024;2023-02-28T05:06:19;-1.10;99.90
13405;DHT22;6773;51.192;7.024;2023-02-28T05:08:46;-1.10;99.90
13405;DHT22;6773;51.192;7.024;2023-02-28T05:11:41;-1.20;99.90
13405;DHT22;6773;51.192;7.024;2023-02-28T05:14:11;-1.10;99.90
13405;DHT22;6773;51.192;7.024;2023-02-28T05:16:37;-1.10;99.90
13405;DHT22;6773;51.192;7.024;2023-02-28T05:19:03;-1.20;99.90
13405;DHT22;6773;51.192;7.024;2023-02-28T05:21:32;-1.20;99.90
13405;DHT22;6773;51.192;7.024;2023-02-28T05:24:01;-1.20;99.90
13405;DHT22;6773;51.192;7.024;2023-02-28T05:26:28;-1.10;99.90
13405;DHT22;6773;51.192;7.024;2023-02-28T05:31:20;-1.20;99.90
13405;DHT22;6773;51.192;7.024;2023-02-28T05:33:46;-1.20;99.90
13405;DHT22;6773;51.192;7.024;2023-02-28T05:36:12;-1.20;99.90
13405;DHT22;6773;51.192;7.024;2023-02-28T05:38:37;-1.30;99.90
13405;DHT22;6773;51.192;7.024;2023-02-28T05:41:10;-1.20;99.90
13405;DHT22;6773;51.192;7.024;2023-02-28T05:43:36;-1.20;99.90
13405;DHT22;6773;51.192;7.024;2023-02-28T05:46:07;-1.20;99.90
13405;DHT22;6773;51.192;7.024;2023-02-28T05:48:37;-1.20;99.90
13405;DHT22;6773;51.192;7.024;2023-02-28T05:53:30;-1.20;99.90
13405;DHT22;6773;51.192;7.024;2023-02-28T05:55:55;-1.20;99.90
13405;DHT22;6773;51.192;7.024;2023-02-28T06:00:48;-1.30;99.90
13405;DHT22;6773;51.192;7.024;2023-02-28T06:03:14;-1.30;99.90
13405;DHT22;6773;51.192;7.024;2023-02-28T06:05:40;-1.30;99.90
13405;DHT22;6773;51.192;7.024;2023-02-28T06:08:05;-1.30;99.90
13405;DHT22;6773;51.192;7.024;2023-02-28T06:10:33;-1.40;99.90
13405;DHT22;6773;51.192;7.024;2023-02-28T06:13:03;-1.30;99.90
13405;DHT22;6773;51.192;7.024;2023-02-28T06:15:29;-1.30;99.90
13405;DHT22;6773;51.192;7.024;2023-02-28T06:20:25;-1.40;99.90
13405;DHT22;6773;51.192;7.024;2023-02-28T06:25:21;-1.30;99.90
13405;DHT22;6773;51.192;7.024;2023-02-28T06:27:47;-1.40;99.90
13405;DHT22;6773;51.192;7.024;2023-02-28T06:30:13;-1.40;99.90
13405;DHT22;6773;51.192;7.024;2023-02-28T06:32:39;-1.30;99.90
13405;DHT22;6773;51.192;7.024;2023-02-28T06:37:32;-1.20;99.90
13405;DHT22;6773;51.192;7.024;2023-02-28T06:39:58;-1.20;99.90
13405;DHT22;6773;51.192;7.024;2023-02-28T06:42:24;-1.20;99.70
13405;DHT22;6773;51.192;7.024;2023-02-28T06:44:56;-1.10;99.50
13405;DHT22;6773;51.192;7.024;2023-02-28T06:49:49;-1.00;99.10
13405;DHT22;6773;51.192;7.024;2023-02-28T06:54:41;-0.70;98.60
13405;DHT22;6773;51.192;7.024;2023-02-28T06:57:07;-0.40;98.40
13405;DHT22;6773;51.192;7.024;2023-02-28T06:59:33;-0.10;98.00
13405;DHT22;6773;51.192;7.024;2023-02-28T07:02:00;0.00;97.40
13405;DHT22;6773;51.192;7.024;2023-02-28T07:04:27;0.30;96.80
13405;DHT22;6773;51.192;7.024;2023-02-28T07:06:53;0.60;96.00
13405;DHT22;6773;51.192;7.024;2023-02-28T07:09:21;0.80;95.40
13405;DHT22;6773;51.192;7.024;2023-02-28T07:11:47;0.90;95.10
13405;DHT22;6773;51.192;7.024;2023-02-28T07:14:12;1.30;94.60
13405;DHT22;6773;51.192;7.024;2023-02-28T07:16:38;1.40;93.60
13405;DHT22;6773;51.192;7.024;2023-02-28T07:23:55;1.90;92.20
13405;DHT22;6773;51.192;7.024;2023-02-28T07:26:22;2.00;91.50
13405;DHT22;6773;51.192;7.024;2023-02-28T07:28:48;2.20;91.30
13405;DHT22;6773;51.192;7.024;2023-02-28T07:31:15;2.20;90.70
13405;DHT22;6773;51.192;7.024;2023-02-28T07:33:42;2.20;91.00
13405;DHT22;6773;51.192;7.024;2023-02-28T07:36:10;2.10;90.20
13405;DHT22;6773;51.192;7.024;2023-02-28T07:38:41;2.10;90.30
13405;DHT22;6773;51.192;7.024;2023-02-28T07:41:08;2.00;90.40
13405;DHT22;6773;51.192;7.024;2023-02-28T07:43:34;2.10;89.70
13405;DHT22;6773;51.192;7.024;2023-02-28T07:46:05;2.20;89.80
13405;DHT22;6773;51.192;7.024;2023-02-28T07:48:32;2.20;90.20
13405;DHT22;6773;51.192;7.024;2023-02-28T07:50:58;2.10;89.40
13405;DHT22;6773;51.192;7.024;2023-02-28T07:55:50;2.20;89.90
13405;DHT22;6773;51.192;7.024;2023-02-28T07:58:16;2.10;88.10
13405;DHT22;6773;51.192;7.024;2023-02-28T08:00:41;2.00;89.10
13405;DHT22;6773;51.192;7.024;2023-02-28T08:03:11;2.10;88.10
13405;DHT22;6773;51.192;7.024;2023-02-28T08:05:40;2.20;88.00
13405;DHT22;6773;51.192;7.024;2023-02-28T08:08:07;2.20;87.20
13405;DHT22;6773;51.192;7.024;2023-02-28T08:10:33;2.30;87.00
13405;DHT22;6773;51.192;7.024;2023-02-28T08:12:59;2.30;85.40
13405;DHT22;6773;51.192;7.024;2023-02-28T08:15:25;2.30;86.30
13405;DHT22;6773;51.192;7.024;2023-02-28T08:20:17;2.60;86.00
13405;DHT22;6773;51.192;7.024;2023-02-28T08:22:42;2.70;85.80
13405;DHT22;6773;51.192;7.024;2023-02-28T08:25:08;2.80;84.70
13405;DHT22;6773;51.192;7.024;2023-02-28T08:27:35;2.90;83.80
13405;DHT22;6773;51.192;7.024;2023-02-28T08:30:00;3.10;85.60
13405;DHT22;6773;51.192;7.024;2023-02-28T08:32:26;3.30;83.50
13405;DHT22;6773;51.192;7.024;2023-02-28T08:34:52;3.60;84.00
13405;DHT22;6773;51.192;7.024;2023-02-28T08:39:43;3.80;80.70
13405;DHT22;6773;51.192;7.024;2023-02-28T08:42:09;4.00;81.10
13405;DHT22;6773;51.192;7.024;2023-02-28T08:44:34;4.10;80.40
13405;DHT22;6773;51.192;7.024;2023-02-28T08:47:00;4.20;78.90
13405;DHT22;6773;51.192;7.024;2023-02-28T08:49:26;4.50;78.10
13405;DHT22;6773;51.192;7.024;2023-02-28T08:51:51;4.40;77.20
13405;DHT22;6773;51.192;7.024;2023-02-28T08:54:17;4.10;75.50
13405;DHT22;6773;51.192;7.024;2023-02-28T08:56:45;4.10;75.60
13405;DHT22;6773;51.192;7.024;2023-02-28T09:01:38;4.10;75.40
13405;DHT22;6773;51.192;7.024;2023-02-28T09:04:04;4.20;76.90
13405;DHT22;6773;51.192;7.024;2023-02-28T09:06:32;4.30;75.70
13405;DHT22;6773;51.192;7.024;2023-02-28T09:08:59;3.60;75.70
13405;DHT22;6773;51.192;7.024;2023-02-28T09:11:25;3.80;76.10
13405;DHT22;6773;51.192;7.024;2023-02-28T09:13:51;4.00;76.60
13405;DHT22;6773;51.192;7.024;2023-02-28T09:16:17;4.20;73.20
13405;DHT22;6773;51.192;7.024;2023-02-28T09:18:43;4.70;75.40
13405;DHT22;6773;51.192;7.024;2023-02-28T09:21:13;4.70;74.80
13405;DHT22;6773;51.192;7.024;2023-02-28T09:23:43;4.90;72.60
13405;DHT22;6773;51.192;7.024;2023-02-28T09:26:20;5.20;72.80
13405;DHT22;6773;51.192;7.024;2023-02-28T09:31:18;4.80;73.80
13405;DHT22;6773;51.192;7.024;2023-02-28T09:33:48;4.90;72.10
13405;DHT22;6773;51.192;7.024;2023-02-28T09:36:14;4.50;71.50
13405;DHT22;6773;51.192;7.024;2023-02-28T09:38:40;4.30;72.00
13405;DHT22;6773;51.192;7.024;2023-02-28T09:43:50;3.50;74.70
13405;DHT22;6773;51.192;7.024;2023-02-28T09:46:33;3.80;75.20
13405;DHT22;6773;51.192;7.024;2023-02-28T09:49:05;4.10;73.70
13405;DHT22;6773;51.192;7.024;2023-02-28T09:54:17;4.10;73.50
13405;DHT22;6773;51.192;7.024;2023-02-28T09:56:48;3.70;75.00
13405;DHT22;6773;51.192;7.024;2023-02-28T09:59:27;3.90;74.50
13405;DHT22;6773;51.192;7.024;2023-02-28T10:04:54;4.30;73.20
13405;DHT22;6773;51.192;7.024;2023-02-28T10:09:52;4.00;73.60
13405;DHT22;6773;51.192;7.024;2023-02-28T10:12:20;4.00;72.80
13405;DHT22;6773;51.192;7.024;2023-02-28T10:14:47;3.50;73.40
13405;DHT22;6773;51.192;7.024;2023-02-28T10:17:18;3.00;74.20
13405;DHT22;6773;51.192;7.024;2023-02-28T10:20:01;3.30;76.10
13405;DHT22;6773;51.192;7.024;2023-02-28T10:25:22;3.10;74.60
13405;DHT22;6773;51.192;7.024;2023-02-28T10:27:50;3.40;73.60
13405;DHT22;6773;51.192;7.024;2023-02-28T10:30:18;3.20;74.70
13405;DHT22;6773;51.192;7.024;2023-02-28T10:32:50;3.30;75.00
13405;DHT22;6773;51.192;7.024;2023-02-28T10:35:24;3.80;74.10
13405;DHT22;6773;51.192;7.024;2023-02-28T10:37:54;4.00;74.10
13405;DHT22;6773;51.192;7.024;2023-02-28T10:40:34;4.00;73.80
13405;DHT22;6773;51.192;7.024;2023-02-28T10:43:05;4.20;73.80
13405;DHT22;6773;51.192;7.024;2023-02-28T10:45:33;4.50;72.80
13405;DHT22;6773;51.192;7.024;2023-02-28T10:48:44;4.50;73.30
13405;DHT22;6773;51.192;7.024;2023-02-28T11:01:19;8.40;69.80
13405;DHT22;6773;51.192;7.024;2023-02-28T11:03:45;8.40;67.50
13405;DHT22;6773;51.192;7.024;2023-02-28T11:06:23;8.50;67.60
13405;DHT22;6773;51.192;7.024;2023-02-28T11:08:59;8.70;67.00
13405;DHT22;6773;51.192;7.024;2023-02-28T11:11:27;9.10;66.70
13405;DHT22;6773;51.192;7.024;2023-02-28T11:14:04;9.20;67.30
13405;DHT22;6773;51.192;7.024;2023-02-28T11:16:37;9.30;66.60
13405;DHT22;6773;51.192;7.024;2023-02-28T11:19:06;9.80;66.50
13405;DHT22;6773;51.192;7.024;2023-02-28T11:21:50;10.90;64.80
13405;DHT22;6773;51.192;7.024;2023-02-28T11:24:21;10.90;63.70
13405;DHT22;6773;51.192;7.024;2023-02-28T11:26:48;10.60;62.50
13405;DHT22;6773;51.192;7.024;2023-02-28T11:31:40;10.10;59.30
13405;DHT22;6773;51.192;7.024;2023-02-28T11:34:24;10.00;61.40
13405;DHT22;6773;51.192;7.024;2023-02-28T11:36:52;10.50;61.70
13405;DHT22;6773;51.192;7.024;2023-02-28T11:39:19;10.70;59.00
13405;DHT22;6773;51.192;7.024;2023-02-28T11:42:04;9.80;57.60
13405;DHT22;6773;51.192;7.024;2023-02-28T11:59:55;10.40;58.60
13405;DHT22;6773;51.192;7.024;2023-02-28T12:02:30;10.90;58.70
13405;DHT22;6773;51.192;7.024;2023-02-28T12:05:39;11.00;56.50
13405;DHT22;6773;51.192;7.024;2023-02-28T12:14:36;10.80;58.20
13405;DHT22;6773;51.192;7.024;2023-02-28T12:23:36;10.40;56.90
13405;DHT22;6773;51.192;7.024;2023-02-28T12:28:46;9.00;57.70
13405;DHT22;6773;51.192;7.024;2023-02-28T12:31:33;8.30;58.40
13405;DHT22;6773;51.192;7.024;2023-02-28T12:34:04;8.30;57.90
13405;DHT22;6773;51.192;7.024;2023-02-28T12:36:32;8.70;56.80
13405;DHT22;6773;51.192;7.024;2023-02-28T12:39:26;8.90;57.90
13405;DHT22;6773;51.192;7.024;2023-02-28T12:42:44;8.90;56.60
13405;DHT22;6773;51.192;7.024;2023-02-28T12:45:36;9.00;56.50
13405;DHT22;6773;51.192;7.024;2023-02-28T12:47:42;8.40;55.50
13405;DHT22;6773;51.192;7.024;2023-02-28T12:50:10;5.10;55.80
13405;DHT22;6773;51.192;7.024;2023-02-28T12:52:59;9.40;57.10
13405;DHT22;6773;51.192;7.024;2023-02-28T12:55:35;9.90;57.00
13405;DHT22;6773;51.192;7.024;2023-02-28T12:58:20;10.20;56.80
13405;DHT22;6773;51.192;7.024;2023-02-28T13:07:22;10.50;55.00
13405;DHT22;6773;51.192;7.024;2023-02-28T13:09:56;10.40;56.90
13405;DHT22;6773;51.192;7.024;2023-02-28T13:12:22;10.70;56.80
13405;DHT22;6773;51.192;7.024;2023-02-28T13:14:49;10.80;54.80
13405;DHT22;6773;51.192;7.024;2023-02-28T13:17:23;10.70;54.50
13405;DHT22;6773;51.192;7.024;2023-02-28T13:24:55;11.10;54.00
13405;DHT22;6773;51.192;7.024;2023-02-28T13:27:41;11.30;54.00
13405;DHT22;6773;51.192;7.024;2023-02-28T13:33:33;10.50;52.40
13405;DHT22;6773;51.192;7.024;2023-02-28T13:38:53;10.30;58.50
13405;DHT22;6773;51.192;7.024;2023-02-28T13:44:18;11.20;52.30
13405;DHT22;6773;51.192;7.024;2023-02-28T14:05:19;10.20;57.10
13405;DHT22;6773;51.192;7.024;2023-02-28T14:07:53;10.60;55.80
13405;DHT22;6773;51.192;7.024;2023-02-28T14:13:03;11.10;54.00
13405;DHT22;6773;51.192;7.024;2023-02-28T14:18:32;11.90;54.20
13405;DHT22;6773;51.192;7.024;2023-02-28T14:21:12;11.70;54.50
13405;DHT22;6773;51.192;7.024;2023-02-28T14:23:49;11.40;53.50
13405;DHT22;6773;51.192;7.024;2023-02-28T14:34:52;11.50;52.50
13405;DHT22;6773;51.192;7.024;2023-02-28T14:37:26;11.00;52.90
13405;DHT22;6773;51.192;7.024;2023-02-28T14:39:53;10.30;53.10
13405;DHT22;6773;51.192;7.024;2023-02-28T14:42:36;10.20;53.80
13405;DHT22;6773;51.192;7.024;2023-02-28T14:45:20;10.20;55.70
13405;DHT22;6773;51.192;7.024;2023-02-28T14:47:47;11.00;55.20
13405;DHT22;6773;51.192;7.024;2023-02-28T14:50:21;11.40;54.20
13405;DHT22;6773;51.192;7.024;2023-02-28T14:52:52;11.40;53.10
13405;DHT22;6773;51.192;7.024;2023-02-28T14:55:22;11.00;51.80
13405;DHT22;6773;51.192;7.024;2023-02-28T14:57:57;10.90;52.30
13405;DHT22;6773;51.192;7.024;2023-02-28T15:00:27;10.90;53.80
13405;DHT22;6773;51.192;7.024;2023-02-28T15:02:55;10.10;51.80
13405;DHT22;6773;51.192;7.024;2023-02-28T15:05:34;9.50;52.50
13405;DHT22;6773;51.192;7.024;2023-02-28T15:08:15;9.50;53.80
13405;DHT22;6773;51.192;7.024;2023-02-28T15:10:58;10.20;55.00
13405;DHT22;6773;51.192;7.024;2023-02-28T15:13:46;10.70;56.30
13405;DHT22;6773;51.192;7.024;2023-02-28T15:16:23;10.70;56.10
13405;DHT22;6773;51.192;7.024;2023-02-28T15:18:56;11.00;57.60
13405;DHT22;6773;51.192;7.024;2023-02-28T15:21:38;11.10;56.10
13405;DHT22;6773;51.192;7.024;2023-02-28T15:24:10;10.80;57.00
13405;DHT22;6773;51.192;7.024;2023-02-28T15:26:41;10.80;56.30
13405;DHT22;6773;51.192;7.024;2023-02-28T15:29:20;10.30;56.60
13405;DHT22;6773;51.192;7.024;2023-02-28T15:32:00;10.20;56.20
13405;DHT22;6773;51.192;7.024;2023-02-28T15:34:41;9.70;58.40
13405;DHT22;6773;51.192;7.024;2023-02-28T15:42:20;10.00;58.20
13405;DHT22;6773;51.192;7.024;2023-02-28T15:44:47;10.00;57.50
13405;DHT22;6773;51.192;7.024;2023-02-28T15:47:23;10.00;58.30
13405;DHT22;6773;51.192;7.024;2023-02-28T15:50:12;10.40;57.90
13405;DHT22;6773;51.192;7.024;2023-02-28T15:52:41;11.30;58.00
13405;DHT22;6773;51.192;7.024;2023-02-28T15:57:50;11.70;56.20
13405;DHT22;6773;51.192;7.024;2023-02-28T16:00:20;11.30;56.50
13405;DHT22;6773;51.192;7.024;2023-02-28T16:02:47;11.40;57.30
13405;DHT22;6773;51.192;7.024;2023-02-28T16:05:27;11.40;56.90
13405;DHT22;6773;51.192;7.024;2023-02-28T16:07:57;11.00;57.50
13405;DHT22;6773;51.192;7.024;2023-02-28T16:10:25;10.90;58.10
13405;DHT22;6773;51.192;7.024;2023-02-28T16:12:54;10.80;58.90
13405;DHT22;6773;51.192;7.024;2023-02-28T16:15:28;11.10;58.40
13405;DHT22;6773;51.192;7.024;2023-02-28T16:17:55;11.20;58.10
13405;DHT22;6773;51.192;7.024;2023-02-28T16:20:25;11.30;58.10
13405;DHT22;6773;51.192;7.024;2023-02-28T16:22:51;11.70;57.50
13405;DHT22;6773;51.192;7.024;2023-02-28T16:25:20;11.50;56.70
13405;DHT22;6773;51.192;7.024;2023-02-28T16:27:49;11.00;58.00
13405;DHT22;6773;51.192;7.024;2023-02-28T16:30:21;10.60;58.60
13405;DHT22;6773;51.192;7.024;2023-02-28T16:32:49;10.20;59.80
13405;DHT22;6773;51.192;7.024;2023-02-28T16:35:14;9.80;60.00
13405;DHT22;6773;51.192;7.024;2023-02-28T16:37:41;9.70;61.40
13405;DHT22;6773;51.192;7.024;2023-02-28T16:40:19;9.20;61.30
13405;DHT22;6773;51.192;7.024;2023-02-28T16:42:48;8.60;62.50
13405;DHT22;6773;51.192;7.024;2023-02-28T16:45:25;8.40;63.60
13405;DHT22;6773;51.192;7.024;2023-02-28T16:47:52;8.30;63.30
13405;DHT22;6773;51.192;7.024;2023-02-28T16:50:20;7.60;64.30
13405;DHT22;6773;51.192;7.024;2023-02-28T16:52:47;7.30;65.90
13405;DHT22;6773;51.192;7.024;2023-02-28T16:55:15;7.10;66.30
13405;DHT22;6773;51.192;7.024;2023-02-28T17:00:08;6.60;67.80
13405;DHT22;6773;51.192;7.024;2023-02-28T17:02:37;6.20;68.70
13405;DHT22;6773;51.192;7.024;2023-02-28T17:05:03;5.90;69.40
13405;DHT22;6773;51.192;7.024;2023-02-28T17:09:55;5.00;72.20
13405;DHT22;6773;51.192;7.024;2023-02-28T17:17:18;4.50;75.70
13405;DHT22;6773;51.192;7.024;2023-02-28T17:24:37;4.10;77.30
13405;DHT22;6773;51.192;7.024;2023-02-28T17:27:03;4.10;78.20
13405;DHT22;6773;51.192;7.024;2023-02-28T17:31:54;4.00;78.30
13405;DHT22;6773;51.192;7.024;2023-02-28T17:34:21;3.80;78.80
13405;DHT22;6773;51.192;7.024;2023-02-28T17:36:49;3.70;80.10
13405;DHT22;6773;51.192;7.024;2023-02-28T17:39:16;3.60;80.80
13405;DHT22;6773;51.192;7.024;2023-02-28T17:41:53;3.60;81.50
13405;DHT22;6773;51.192;7.024;2023-02-28T17:44:20;3.50;82.30
13405;DHT22;6773;51.192;7.024;2023-02-28T17:46:46;3.40;83.10
13405;DHT22;6773;51.192;7.024;2023-02-28T17:49:12;3.30;83.60
13405;DHT22;6773;51.192;7.024;2023-02-28T17:51:39;3.30;84.30
13405;DHT22;6773;51.192;7.024;2023-02-28T17:54:09;3.30;84.60
13405;DHT22;6773;51.192;7.024;2023-02-28T17:59:01;3.20;85.30
13405;DHT22;6773;51.192;7.024;2023-02-28T18:01:27;3.20;85.60
13405;DHT22;6773;51.192;7.024;2023-02-28T18:03:54;3.30;86.30
13405;DHT22;6773;51.192;7.024;2023-02-28T18:06:23;3.20;86.30
13405;DHT22;6773;51.192;7.024;2023-02-28T18:11:18;3.10;87.00
13405;DHT22;6773;51.192;7.024;2023-02-28T18:13:45;3.00;87.80
13405;DHT22;6773;51.192;7.024;2023-02-28T18:16:11;3.00;88.60
13405;DHT22;6773;51.192;7.024;2023-02-28T18:18:38;2.90;88.60
13405;DHT22;6773;51.192;7.024;2023-02-28T18:21:05;2.90;89.40
13405;DHT22;6773;51.192;7.024;2023-02-28T18:25:57;2.80;89.90
13405;DHT22;6773;51.192;7.024;2023-02-28T18:28:23;2.80;90.10
13405;DHT22;6773;51.192;7.024;2023-02-28T18:30:49;2.80;90.40
13405;DHT22;6773;51.192;7.024;2023-02-28T18:33:15;2.70;90.50
13405;DHT22;6773;51.192;7.024;2023-02-28T18:35:40;2.70;90.80
13405;DHT22;6773;51.192;7.024;2023-02-28T18:38:15;2.70;90.80
13405;DHT22;6773;51.192;7.024;2023-02-28T18:40:47;2.70;91.10
13405;DHT22;6773;51.192;7.024;2023-02-28T18:43:15;2.60;91.20
13405;DHT22;6773;51.192;7.024;2023-02-28T18:48:07;2.60;91.60
13405;DHT22;6773;51.192;7.024;2023-02-28T18:50:32;2.50;91.50
13405;DHT22;6773;51.192;7.024;2023-02-28T18:55:24;2.60;91.90
13405;DHT22;6773;51.192;7.024;2023-02-28T18:57:52;2.50;92.00
13405;DHT22;6773;51.192;7.024;2023-02-28T19:00:18;2.50;92.20
13405;DHT22;6773;51.192;7.024;2023-02-28T19:02:48;2.40;92.40
13405;DHT22;6773;51.192;7.024;2023-02-28T19:05:14;2.40;92.60
13405;DHT22;6773;51.192;7.024;2023-02-28T19:07:40;2.30;92.80
13405;DHT22;6773;51.192;7.024;2023-02-28T19:10:06;2.30;92.90
13405;DHT22;6773;51.192;7.024;2023-02-28T19:12:36;2.30;92.90
13405;DHT22;6773;51.192;7.024;2023-02-28T19:15:03;2.30;93.10
13405;DHT22;6773;51.192;7.024;2023-02-28T19:17:29;2.30;93.20
13405;DHT22;6773;51.192;7.024;2023-02-28T19:19:55;2.20;93.30
13405;DHT22;6773;51.192;7.024;2023-02-28T19:24:51;2.20;93.40
13405;DHT22;6773;51.192;7.024;2023-02-28T19:27:17;2.20;93.40
13405;DHT22;6773;51.192;7.024;2023-02-28T19:29:50;2.10;93.50
13405;DHT22;6773;51.192;7.024;2023-02-28T19:32:17;2.10;93.70
13405;DHT22;6773;51.192;7.024;2023-02-28T19:34:43;2.20;93.70
13405;DHT22;6773;51.192;7.024;2023-02-28T19:37:09;2.00;93.90
13405;DHT22;6773;51.192;7.024;2023-02-28T19:42:09;2.00;94.30
13405;DHT22;6773;51.192;7.024;2023-02-28T19:47:01;1.80;94.80
13405;DHT22;6773;51.192;7.024;2023-02-28T19:51:53;1.70;95.30
13405;DHT22;6773;51.192;7.024;2023-02-28T19:54:19;1.70;95.60
13405;DHT22;6773;51.192;7.024;2023-02-28T19:56:45;1.70;95.90
13405;DHT22;6773;51.192;7.024;2023-02-28T19:59:10;1.70;96.30
13405;DHT22;6773;51.192;7.024;2023-02-28T20:01:37;1.60;96.50
13405;DHT22;6773;51.192;7.024;2023-02-28T20:04:03;1.70;96.80
13405;DHT22;6773;51.192;7.024;2023-02-28T20:06:33;1.70;97.10
13405;DHT22;6773;51.192;7.024;2023-02-28T20:11:24;1.60;97.30
13405;DHT22;6773;51.192;7.024;2023-02-28T20:13:54;1.70;97.30
13405;DHT22;6773;51.192;7.024;2023-02-28T20:16:22;1.70;97.20
13405;DHT22;6773;51.192;7.024;2023-02-28T20:18:50;1.70;97.20
13405;DHT22;6773;51.192;7.024;2023-02-28T20:21:17;1.60;97.10
13405;DHT22;6773;51.192;7.024;2023-02-28T20:23:44;1.70;97.10
13405;DHT22;6773;51.192;7.024;2023-02-28T20:26:10;1.70;97.10
13405;DHT22;6773;51.192;7.024;2023-02-28T20:31:16;1.60;97.10
13405;DHT22;6773;51.192;7.024;2023-02-28T20:33:43;1.50;97.50
13405;DHT22;6773;51.192;7.024;2023-02-28T20:36:09;1.50;97.50